Time;durP1;ratioP1;P1;durP2;ratioP2;P2;SDS_P1;SDS_P2;PMS_P1;PMS_P2;Temp;Humidity;BMP_temperature;BMP_pressure;BME280_temperature;BME280_humidity;BME280_pressure;Samples;Min_cycle;Max_cycle;Signal;HPM_P1;HPM_P2
2023/01/19 00:01:56;;;;;;;27.73;16.65;;;18.70;91.20;;;;;;1870249;76;21190;-83
2023/01/19 00:04:27;;;;;;;27.98;16.30;;;18.60;91.10;;;;;;1867870;76;21087;-83
2023/01/19 00:06:57;;;;;;;23.85;15.98;;;18.60;91.20;;;;;;1880132;75;21144;-83
2023/01/19 00:09:32;;;;;;;26.65;16.42;;;18.60;91.10;;;;;;1858090;75;21180;-82
2023/01/19 00:12:01;;;;;;;19.42;13.22;;;18.60;91.20;;;;;;1859117;76;21611;-82
2023/01/19 00:14:32;;;;;;;19.95;13.45;;;18.60;91.10;;;;;;1868663;76;21087;-81
2023/01/19 00:17:03;;;;;;;22.07;15.68;;;18.60;91.10;;;;;;1872884;76;21152;-82
2023/01/19 00:19:34;;;;;;;23.95;15.88;;;18.50;91.10;;;;;;1870027;75;21203;-83
2023/01/19 00:22:05;;;;;;;21.12;15.13;;;18.50;91.10;;;;;;1874277;75;21180;-83
2023/01/19 00:24:36;;;;;;;23.98;16.62;;;18.60;91.20;;;;;;1873465;75;21570;-82
2023/01/19 00:27:07;;;;;;;24.87;16.82;;;18.60;91.20;;;;;;1869013;76;21145;-83
2023/01/19 00:29:38;;;;;;;28.35;19.12;;;18.60;91.20;;;;;;1869701;76;21094;-84
2023/01/19 00:32:08;;;;;;;29.40;17.92;;;18.60;91.20;;;;;;1874897;76;21168;-83
2023/01/19 00:34:41;;;;;;;25.12;17.15;;;18.70;91.10;;;;;;1866656;75;21061;-83
2023/01/19 00:37:12;;;;;;;26.05;16.30;;;18.70;91.10;;;;;;1872940;75;21236;-84
2023/01/19 00:39:43;;;;;;;24.98;16.57;;;18.70;91.10;;;;;;1882773;74;21198;-83
2023/01/19 00:45:05;;;;;;;25.75;15.78;;;18.80;90.80;;;;;;1849112;76;21538;-84
2023/01/19 00:47:38;;;;;;;27.67;16.07;;;18.90;90.60;;;;;;1869952;75;21143;-84
2023/01/19 00:50:11;;;;;;;27.35;14.93;;;18.90;90.50;;;;;;1870934;75;21586;-83
2023/01/19 00:52:42;;;;;;;20.48;12.60;;;19.00;90.40;;;;;;1875222;74;21053;-85
2023/01/19 00:55:15;;;;;;;18.52;11.65;;;19.00;90.10;;;;;;1868122;75;21110;-85
2023/01/19 00:57:46;;;;;;;16.60;10.55;;;19.10;89.80;;;;;;1829303;76;21085;-85
2023/01/19 01:00:19;;;;;;;15.80;10.65;;;19.10;89.50;;;;;;1880305;75;21048;-83
2023/01/19 01:02:52;;;;;;;22.00;11.53;;;19.10;89.10;;;;;;1877370;75;21152;-82
2023/01/19 01:05:23;;;;;;;18.70;11.22;;;19.20;88.70;;;;;;1874969;76;21136;-85
2023/01/19 01:07:55;;;;;;;17.62;11.43;;;19.20;88.50;;;;;;1870628;76;21166;-84
2023/01/19 01:10:28;;;;;;;19.45;12.18;;;19.30;88.30;;;;;;1887092;75;21097;-84
2023/01/19 01:13:00;;;;;;;17.30;12.35;;;19.30;88.40;;;;;;1877966;75;21081;-85
2023/01/19 01:15:33;;;;;;;21.77;12.50;;;19.30;88.10;;;;;;1856721;75;21101;-86
2023/01/19 01:18:04;;;;;;;19.90;11.70;;;19.40;88.00;;;;;;1872293;75;21090;-84
2023/01/19 01:20:36;;;;;;;17.75;12.43;;;19.40;87.80;;;;;;1864185;75;21228;-86
2023/01/19 01:23:07;;;;;;;18.77;12.58;;;19.40;87.80;;;;;;1878491;75;21065;-87
2023/01/19 01:25:37;;;;;;;21.15;13.00;;;19.50;88.10;;;;;;1863141;77;21062;-82
2023/01/19 01:28:10;;;;;;;20.08;13.05;;;19.50;87.90;;;;;;1873267;76;21242;-86
2023/01/19 01:30:42;;;;;;;21.12;13.05;;;19.60;87.90;;;;;;1875003;76;21058;-86
2023/01/19 01:33:13;;;;;;;20.77;12.20;;;19.60;87.80;;;;;;1868560;76;21158;-84
2023/01/19 01:35:45;;;;;;;20.65;12.05;;;19.70;87.40;;;;;;1869941;75;21161;-82
2023/01/19 01:38:16;;;;;;;18.60;12.07;;;19.70;87.60;;;;;;1876712;75;21197;-84
2023/01/19 01:40:47;;;;;;;20.35;12.75;;;19.80;87.80;;;;;;1859048;75;21451;-87
2023/01/19 01:43:24;;;;;;;21.87;12.30;;;19.90;87.70;;;;;;1873426;76;21081;-84
2023/01/19 01:45:53;;;;;;;18.12;11.70;;;20.00;87.30;;;;;;1876339;75;21162;-85
2023/01/19 01:48:27;;;;;;;20.82;12.25;;;20.10;87.10;;;;;;1863741;76;21194;-85
2023/01/19 01:54:02;;;;;;;18.42;10.85;;;20.20;86.40;;;;;;1864729;75;21617;-86
2023/01/19 01:56:35;;;;;;;19.85;11.65;;;20.30;86.00;;;;;;1874242;76;21136;-85
2023/01/19 01:59:08;;;;;;;16.37;10.53;;;20.30;85.90;;;;;;1858152;77;21209;-85
2023/01/19 02:04:31;;;;;;;15.83;10.18;;;20.30;86.00;;;;;;1859041;75;21645;-86
2023/01/19 02:15:28;;;;;;;13.28;8.08;;;20.50;84.30;;;;;;1866242;76;21099;-84
2023/01/19 02:17:59;;;;;;;15.03;7.85;;;20.50;83.80;;;;;;1868185;75;21207;-83
2023/01/19 02:20:36;;;;;;;11.53;6.97;;;20.60;84.80;;;;;;1878930;75;21113;-82
2023/01/19 02:23:09;;;;;;;10.03;6.62;;;20.60;83.60;;;;;;1873447;74;21538;-84
2023/01/19 02:25:40;;;;;;;7.58;5.70;;;20.60;83.30;;;;;;1843286;76;21087;-83
2023/01/19 02:28:12;;;;;;;11.75;6.95;;;20.70;82.70;;;;;;1883304;74;21165;-80
2023/01/19 02:30:43;;;;;;;10.32;7.37;;;20.70;83.00;;;;;;1847606;76;21098;-84
2023/01/19 02:33:15;;;;;;;8.50;6.05;;;20.70;83.20;;;;;;1882976;74;21120;-82
2023/01/19 02:35:47;;;;;;;9.08;6.12;;;20.80;83.00;;;;;;1865863;75;21128;-83
2023/01/19 02:38:20;;;;;;;11.55;5.80;;;20.80;83.20;;;;;;1802241;77;21142;-83
2023/01/19 02:40:53;;;;;;;8.43;6.05;;;20.80;83.30;;;;;;1886574;75;21090;-86
2023/01/19 02:43:24;;;;;;;9.75;7.37;;;20.90;82.60;;;;;;1873491;76;21203;-84
2023/01/19 02:45:56;;;;;;;11.10;6.62;;;21.00;82.20;;;;;;1874879;76;21143;-80
2023/01/19 02:48:26;;;;;;;11.65;6.87;;;21.00;82.30;;;;;;1871112;75;21213;-84
2023/01/19 02:51:06;;;;;;;16.45;8.73;;;21.00;82.50;;;;;;1842523;77;21133;-82
2023/01/19 02:53:48;;;;;;;12.58;7.83;;;21.00;82.60;;;;;;1829256;77;21266;-82
2023/01/19 02:56:39;;;;;;;9.48;6.75;;;21.00;82.40;;;;;;1858459;75;21205;-82
2023/01/19 02:59:18;;;;;;;11.60;6.92;;;21.10;82.40;;;;;;1818351;77;21546;-83
2023/01/19 03:02:03;;;;;;;10.10;6.65;;;21.10;82.20;;;;;;1892295;74;21043;-85
2023/01/19 03:04:37;;;;;;;10.03;6.72;;;21.20;82.10;;;;;;1868984;76;21193;-84
2023/01/19 03:07:13;;;;;;;12.43;8.73;;;21.20;82.00;;;;;;1872761;74;21073;-83
2023/01/19 03:09:52;;;;;;;11.78;8.13;;;21.30;81.80;;;;;;1874934;74;21636;-83
2023/01/19 03:12:28;;;;;;;10.90;7.70;;;21.30;81.60;;;;;;1871480;76;21101;-83
2023/01/19 03:15:02;;;;;;;11.35;7.72;;;21.40;81.70;;;;;;1813386;78;21175;-82
2023/01/19 03:17:34;;;;;;;13.80;9.15;;;21.40;81.50;;;;;;1833028;77;21130;-82
2023/01/19 03:20:07;;;;;;;14.18;8.25;;;21.40;81.20;;;;;;1825394;76;21095;-82
2023/01/19 03:22:39;;;;;;;15.13;9.03;;;21.50;81.10;;;;;;1831520;77;21216;-82
2023/01/19 03:25:11;;;;;;;13.08;7.95;;;21.60;81.20;;;;;;1856661;76;21116;-82
2023/01/19 03:27:44;;;;;;;11.78;7.40;;;21.70;81.00;;;;;;1818283;78;21162;-83
2023/01/19 03:30:21;;;;;;;17.90;7.78;;;21.80;80.60;;;;;;1882128;74;21150;-80
2023/01/19 03:33:06;;;;;;;12.47;6.78;;;21.80;80.30;;;;;;1873378;74;21131;-83
2023/01/19 03:35:43;;;;;;;12.20;7.00;;;21.90;80.30;;;;;;1812897;79;21138;-82
2023/01/19 03:38:27;;;;;;;12.65;6.55;;;22.00;80.50;;;;;;1880892;75;21163;-83
2023/01/19 03:41:00;;;;;;;10.53;7.60;;;22.00;80.00;;;;;;1809295;78;21243;-82
2023/01/19 03:43:32;;;;;;;12.68;7.22;;;22.10;80.00;;;;;;1893605;74;21124;-81
2023/01/19 03:46:05;;;;;;;11.00;6.92;;;22.10;79.90;;;;;;1844245;77;21598;-84
2023/01/19 03:48:36;;;;;;;11.43;6.97;;;22.20;79.60;;;;;;1853191;77;21138;-84
2023/01/19 03:51:09;;;;;;;13.10;7.28;;;22.30;79.40;;;;;;1884458;74;21070;-84
2023/01/19 03:53:40;;;;;;;9.03;6.75;;;22.40;78.90;;;;;;1813763;78;21161;-83
2023/01/19 03:56:22;;;;;;;12.82;7.37;;;22.50;78.90;;;;;;1888568;75;21134;-84
2023/01/19 03:58:53;;;;;;;11.00;7.12;;;22.60;78.60;;;;;;1886565;74;21052;-84
2023/01/19 04:01:25;;;;;;;11.05;7.22;;;22.70;77.80;;;;;;1876980;75;21555;-81
2023/01/19 04:03:56;;;;;;;10.23;6.60;;;22.80;78.00;;;;;;1874158;74;21152;-82
2023/01/19 04:06:27;;;;;;;11.80;6.37;;;23.00;77.20;;;;;;1816482;78;21099;-84
2023/01/19 04:08:58;;;;;;;10.43;6.33;;;23.10;76.80;;;;;;1878317;74;21199;-83
2023/01/19 04:11:29;;;;;;;8.45;5.55;;;23.20;76.90;;;;;;1795430;77;21187;-83
2023/01/19 04:14:00;;;;;;;9.75;6.42;;;23.30;75.90;;;;;;1807704;76;21187;-84
2023/01/19 04:16:31;;;;;;;10.60;6.28;;;23.40;75.60;;;;;;1817889;79;21619;-82
2023/01/19 04:19:02;;;;;;;10.82;6.60;;;23.50;75.50;;;;;;1816138;79;21101;-83
2023/01/19 04:21:34;;;;;;;11.38;6.55;;;23.50;75.50;;;;;;1847498;76;21697;-83
2023/01/19 04:24:05;;;;;;;10.05;6.10;;;23.70;75.10;;;;;;1817433;77;21194;-83
2023/01/19 04:26:56;;;;;;;11.57;6.40;;;23.70;74.90;;;;;;1850747;76;21168;-84
2023/01/19 04:29:27;;;;;;;12.45;5.55;;;23.80;74.60;;;;;;1863241;76;21688;-83
2023/01/19 04:31:58;;;;;;;10.18;5.87;;;24.00;74.50;;;;;;1840676;76;21063;-83
2023/01/19 04:34:29;;;;;;;12.00;6.92;;;24.10;73.80;;;;;;1846955;76;21087;-83
2023/01/19 04:37:00;;;;;;;12.85;6.62;;;24.20;73.90;;;;;;1865263;76;21603;-81
2023/01/19 04:39:30;;;;;;;9.35;6.28;;;24.40;73.90;;;;;;1866942;75;21242;-86
2023/01/19 04:42:01;;;;;;;10.95;6.50;;;24.50;72.50;;;;;;1867438;76;21222;-84
2023/01/19 04:44:32;;;;;;;10.98;6.22;;;24.50;72.50;;;;;;1876322;76;21666;-82
2023/01/19 04:47:03;;;;;;;7.08;5.25;;;24.60;72.20;;;;;;1872384;75;21640;-84
2023/01/19 04:49:36;;;;;;;10.43;5.95;;;24.70;71.80;;;;;;1875187;76;21097;-84
2023/01/19 04:52:06;;;;;;;9.33;5.67;;;24.80;71.60;;;;;;1873851;75;21254;-84
2023/01/19 04:54:37;;;;;;;8.78;5.67;;;24.90;70.90;;;;;;1871266;76;21140;-85
2023/01/19 04:57:08;;;;;;;11.93;6.87;;;24.90;71.30;;;;;;1866453;75;21132;-86
2023/01/19 04:59:44;;;;;;;9.35;6.47;;;25.00;70.70;;;;;;1871191;75;21612;-84
2023/01/19 05:02:13;;;;;;;10.88;5.67;;;25.10;70.90;;;;;;1873032;75;21183;-85
2023/01/19 05:04:43;;;;;;;9.70;5.70;;;25.10;70.60;;;;;;1862124;76;21469;-83
2023/01/19 05:07:14;;;;;;;10.43;5.37;;;25.30;70.20;;;;;;1871348;76;21090;-83
2023/01/19 05:09:45;;;;;;;10.75;5.22;;;25.30;70.10;;;;;;1844096;78;21145;-83
2023/01/19 05:12:16;;;;;;;8.88;5.60;;;25.50;70.10;;;;;;1873948;75;21152;-85
2023/01/19 05:14:47;;;;;;;8.53;4.67;;;25.60;69.00;;;;;;1845002;75;21526;-83
2023/01/19 05:17:17;;;;;;;9.13;5.05;;;25.80;69.20;;;;;;1863304;76;21067;-84
2023/01/19 05:19:48;;;;;;;9.80;5.70;;;25.90;68.40;;;;;;1856573;76;21197;-84
2023/01/19 05:22:19;;;;;;;10.63;5.45;;;26.00;68.20;;;;;;1857720;76;21121;-84
2023/01/19 05:24:50;;;;;;;9.43;5.22;;;26.10;67.80;;;;;;1865850;75;21668;-84
2023/01/19 05:27:20;;;;;;;8.38;5.20;;;26.10;68.20;;;;;;1893289;74;21121;-84
2023/01/19 05:29:52;;;;;;;8.85;6.15;;;26.30;67.10;;;;;;1880382;75;21065;-84
2023/01/19 05:32:23;;;;;;;15.13;6.10;;;26.20;66.60;;;;;;1881657;75;21194;-84
2023/01/19 05:34:54;;;;;;;9.73;5.05;;;26.30;67.40;;;;;;1870237;75;21167;-84
2023/01/19 05:37:24;;;;;;;8.83;5.20;;;26.30;67.60;;;;;;1850412;76;21204;-84
2023/01/19 05:39:55;;;;;;;26.87;6.50;;;26.30;67.60;;;;;;1893071;74;21532;-83
2023/01/19 05:42:26;;;;;;;7.80;5.17;;;;;;;;;;1878099;76;21121;-84
2023/01/19 05:44:58;;;;;;;8.48;4.35;;;;;;;;;;1886311;75;21093;-84
2023/01/19 05:47:32;;;;;;;7.75;4.28;;;26.60;92.50;;;;;;1866459;75;21141;-83
2023/01/19 05:50:03;;;;;;;9.20;4.42;;;26.70;80.80;;;;;;1875576;74;21213;-83
2023/01/19 05:52:34;;;;;;;9.33;4.92;;;26.80;80.70;;;;;;1858145;76;21208;-84
2023/01/19 05:55:05;;;;;;;8.65;4.70;;;26.80;82.50;;;;;;1852897;74;21094;-84
2023/01/19 05:57:36;;;;;;;7.55;4.58;;;26.80;65.00;;;;;;1865026;76;21157;-85
2023/01/19 06:00:09;;;;;;;5.95;3.98;;;26.80;65.50;;;;;;1869161;75;21661;-83
2023/01/19 06:02:40;;;;;;;7.92;4.15;;;26.80;64.80;;;;;;1864643;75;21223;-84
2023/01/19 06:05:11;;;;;;;7.80;3.70;;;26.90;65.20;;;;;;1859740;76;21096;-83
2023/01/19 06:07:42;;;;;;;8.58;4.17;;;27.00;64.50;;;;;;1861043;76;21099;-83
2023/01/19 06:10:13;;;;;;;5.70;3.90;;;27.00;64.00;;;;;;1848713;76;21539;-84
2023/01/19 06:12:44;;;;;;;7.00;4.90;;;27.00;63.20;;;;;;1880377;75;21139;-82
2023/01/19 06:15:15;;;;;;;8.93;5.03;;;27.00;63.60;;;;;;1882749;75;21136;-83
2023/01/19 06:17:48;;;;;;;9.30;4.62;;;27.10;64.10;;;;;;1866502;75;21156;-83
2023/01/19 06:20:19;;;;;;;8.38;4.78;;;27.10;63.00;;;;;;1883720;75;21136;-82
2023/01/19 06:22:50;;;;;;;7.85;4.85;;;27.10;63.60;;;;;;1878421;75;21738;-83
2023/01/19 06:25:21;;;;;;;5.83;4.15;;;27.10;64.10;;;;;;1871082;76;21155;-83
2023/01/19 06:27:52;;;;;;;6.08;3.92;;;27.20;63.60;;;;;;1859846;76;21196;-83
2023/01/19 06:30:24;;;;;;;7.15;4.33;;;27.20;63.10;;;;;;1879921;76;21087;-83
2023/01/19 06:32:55;;;;;;;7.12;4.25;;;27.30;62.30;;;;;;1870026;75;21093;-82
2023/01/19 06:35:26;;;;;;;8.88;4.53;;;27.40;62.00;;;;;;1872980;76;21081;-84
2023/01/19 06:37:56;;;;;;;32.53;6.65;;;27.40;61.70;;;;;;1873725;76;21071;-84
2023/01/19 06:40:28;;;;;;;6.12;4.47;;;27.30;61.80;;;;;;1885513;76;21141;-82
2023/01/19 06:42:59;;;;;;;9.95;4.97;;;27.40;62.00;;;;;;1860918;76;21130;-84
2023/01/19 06:45:31;;;;;;;6.30;4.30;;;27.40;62.40;;;;;;1902642;74;21590;-82
2023/01/19 06:48:02;;;;;;;6.42;4.20;;;27.40;61.50;;;;;;1884989;74;21540;-84
2023/01/19 06:50:34;;;;;;;6.78;4.42;;;27.40;60.80;;;;;;1890982;74;21101;-82
2023/01/19 06:53:05;;;;;;;6.62;4.05;;;27.50;61.30;;;;;;1901649;75;21058;-83
2023/01/19 06:55:38;;;;;;;5.30;4.25;;;27.50;61.00;;;;;;1878305;75;21125;-84
2023/01/19 06:58:10;;;;;;;5.17;4.08;;;27.50;61.40;;;;;;1912277;74;21166;-83
2023/01/19 07:00:41;;;;;;;6.58;3.90;;;27.50;60.70;;;;;;1915809;74;21147;-82
2023/01/19 07:03:15;;;;;;;7.12;4.33;;;27.40;60.60;;;;;;1910603;74;21077;-83
2023/01/19 07:05:48;;;;;;;11.95;4.45;;;27.30;61.40;;;;;;1902235;74;21157;-81
2023/01/19 07:08:23;;;;;;;7.78;4.15;;;27.30;61.00;;;;;;1910626;74;21273;-82
2023/01/19 07:11:04;;;;;;;7.10;3.98;;;27.40;61.60;;;;;;1898471;74;21163;-83
2023/01/19 07:13:38;;;;;;;9.23;4.17;;;27.40;60.90;;;;;;1921268;73;21203;-81
2023/01/19 07:16:13;;;;;;;5.50;4.28;;;27.50;60.80;;;;;;1900078;74;21084;-83
2023/01/19 07:18:44;;;;;;;7.92;3.77;;;27.50;60.20;;;;;;1895867;74;21086;-82
2023/01/19 07:21:15;;;;;;;11.80;5.00;;;27.60;60.20;;;;;;1903513;74;21074;-82
2023/01/19 07:23:51;;;;;;;9.13;4.47;;;27.60;60.20;;;;;;1882505;74;21510;-82
2023/01/19 07:26:24;;;;;;;5.37;4.15;;;27.60;60.00;;;;;;1857317;75;21145;-83
2023/01/19 07:28:55;;;;;;;8.18;4.33;;;27.60;61.00;;;;;;1916102;73;21205;-83
2023/01/19 07:31:26;;;;;;;7.97;3.80;;;27.60;60.80;;;;;;1858684;77;21080;-82
2023/01/19 07:33:57;;;;;;;8.00;4.05;;;27.60;60.10;;;;;;1892507;73;21136;-83
2023/01/19 07:36:28;;;;;;;7.35;4.35;;;27.70;59.20;;;;;;1868719;76;21135;-82
2023/01/19 07:38:59;;;;;;;6.42;3.98;;;27.70;59.10;;;;;;1880711;76;21131;-83
2023/01/19 07:41:30;;;;;;;6.35;3.80;;;27.70;59.10;;;;;;1883957;76;21118;-83
2023/01/19 07:44:01;;;;;;;5.87;3.75;;;27.70;58.90;;;;;;1872824;76;21129;-83
2023/01/19 07:46:32;;;;;;;7.75;3.70;;;27.70;58.80;;;;;;1909639;73;21166;-84
2023/01/19 07:49:04;;;;;;;6.83;3.90;;;27.70;59.10;;;;;;1919530;73;21149;-84
2023/01/19 07:51:35;;;;;;;7.12;3.50;;;27.60;59.10;;;;;;1872148;76;21081;-83
2023/01/19 07:54:07;;;;;;;7.10;3.83;;;27.60;59.70;;;;;;1871807;76;21141;-83
2023/01/19 07:56:43;;;;;;;6.53;3.85;;;27.60;58.50;;;;;;1881990;74;21054;-82
2023/01/19 07:59:15;;;;;;;7.62;3.80;;;27.60;58.60;;;;;;1915823;73;21154;-83
2023/01/19 08:01:47;;;;;;;4.97;3.80;;;27.60;58.30;;;;;;1895039;75;21068;-83
2023/01/19 08:04:18;;;;;;;8.05;3.70;;;27.60;58.00;;;;;;1915856;74;21260;-83
2023/01/19 08:06:49;;;;;;;10.50;3.92;;;27.60;57.60;;;;;;1900202;75;21113;-81
2023/01/19 08:09:20;;;;;;;5.33;3.90;;;27.60;57.90;;;;;;1891734;75;21204;-82
2023/01/19 08:11:52;;;;;;;7.53;4.00;;;27.60;58.40;;;;;;1890947;76;21196;-82
2023/01/19 08:14:23;;;;;;;6.08;4.05;;;27.50;57.90;;;;;;1893607;74;21183;-82
2023/01/19 08:16:56;;;;;;;5.75;4.03;;;27.50;58.50;;;;;;1874516;76;21082;-81
2023/01/19 08:19:27;;;;;;;5.83;3.95;;;27.50;58.10;;;;;;1889835;76;21201;-79
2023/01/19 08:21:58;;;;;;;6.62;4.37;;;27.50;58.40;;;;;;1876790;76;21062;-82
2023/01/19 08:24:30;;;;;;;8.15;4.42;;;27.40;58.50;;;;;;1877350;76;21163;-82
2023/01/19 08:27:02;;;;;;;7.70;4.15;;;27.40;58.90;;;;;;1879110;76;21160;-83
2023/01/19 08:29:34;;;;;;;5.60;4.22;;;27.40;58.60;;;;;;1878931;76;21672;-81
2023/01/19 08:32:05;;;;;;;9.13;5.10;;;27.50;58.80;;;;;;1875118;76;21146;-82
2023/01/19 08:34:38;;;;;;;24.35;5.78;;;27.40;58.60;;;;;;1886866;73;21568;-82
2023/01/19 08:37:09;;;;;;;7.50;4.55;;;27.50;58.70;;;;;;1868283;75;21646;-83
2023/01/19 08:39:39;;;;;;;6.97;4.05;;;27.50;57.80;;;;;;1885464;75;21183;-84
2023/01/19 08:42:10;;;;;;;9.80;4.35;;;27.50;57.70;;;;;;1896015;74;21129;-83
2023/01/19 08:44:41;;;;;;;4.72;3.77;;;27.40;57.80;;;;;;1879670;75;21619;-82
2023/01/19 08:47:13;;;;;;;9.90;4.47;;;27.40;57.90;;;;;;1875517;75;21602;-84
2023/01/19 08:49:44;;;;;;;7.47;4.53;;;27.40;58.20;;;;;;1875992;75;21129;-84
2023/01/19 08:52:15;;;;;;;8.15;4.33;;;27.40;58.40;;;;;;1881143;75;21085;-84
2023/01/19 08:54:46;;;;;;;8.35;4.78;;;27.40;58.80;;;;;;1924571;73;21123;-83
2023/01/19 08:57:17;;;;;;;5.55;4.67;;;27.40;58.10;;;;;;1887926;75;21125;-84
2023/01/19 08:59:48;;;;;;;7.30;4.75;;;27.30;58.60;;;;;;1889154;75;21200;-82
2023/01/19 09:02:19;;;;;;;5.90;4.95;;;27.40;59.10;;;;;;1893481;75;21136;-82
2023/01/19 09:04:50;;;;;;;5.95;4.55;;;27.30;58.40;;;;;;1878125;75;21159;-82
2023/01/19 09:07:21;;;;;;;7.35;4.50;;;27.30;58.40;;;;;;1894396;73;21643;-83
2023/01/19 09:09:52;;;;;;;6.67;4.53;;;27.30;58.60;;;;;;1903462;73;21050;-83
2023/01/19 09:12:23;;;;;;;6.80;4.97;;;27.30;58.30;;;;;;1881212;75;21592;-84
2023/01/19 09:14:54;;;;;;;9.78;4.30;;;27.30;58.30;;;;;;1891535;75;21116;-84
2023/01/19 09:17:25;;;;;;;7.22;4.67;;;27.30;58.50;;;;;;1890849;75;21604;-82
2023/01/19 09:19:56;;;;;;;6.87;4.58;;;27.30;58.20;;;;;;1881097;75;21093;-83
2023/01/19 09:22:26;;;;;;;6.85;5.22;;;27.30;58.00;;;;;;1887289;75;21655;-83
2023/01/19 09:24:57;;;;;;;9.35;4.83;;;27.20;58.20;;;;;;1882589;75;21069;-83
2023/01/19 09:27:28;;;;;;;8.20;5.05;;;27.20;58.70;;;;;;1890763;74;21124;-82
2023/01/19 09:29:59;;;;;;;7.83;5.00;;;27.20;58.70;;;;;;1889209;75;21144;-82
2023/01/19 09:32:30;;;;;;;6.28;4.62;;;27.20;58.70;;;;;;1891479;75;21184;-83
2023/01/19 09:35:01;;;;;;;10.53;5.67;;;27.20;58.60;;;;;;1892622;75;21054;-82
2023/01/19 09:37:33;;;;;;;8.95;5.28;;;27.20;58.70;;;;;;1890561;75;21045;-81
2023/01/19 09:40:09;;;;;;;7.15;4.75;;;27.20;58.50;;;;;;1899075;75;21192;-83
2023/01/19 09:42:51;;;;;;;9.00;4.60;;;27.20;58.80;;;;;;1885457;75;21183;-84
2023/01/19 09:45:24;;;;;;;6.67;4.90;;;27.10;58.80;;;;;;1878991;75;21081;-82
2023/01/19 09:47:56;;;;;;;7.95;4.67;;;27.10;58.50;;;;;;1898008;75;21148;-83
2023/01/19 09:50:35;;;;;;;7.28;4.60;;;27.10;58.70;;;;;;1887340;75;21054;-84
2023/01/19 09:53:17;;;;;;;7.72;5.08;;;27.10;58.60;;;;;;1879356;75;21587;-84
2023/01/19 09:55:50;;;;;;;7.47;4.80;;;27.10;58.70;;;;;;1873725;73;21518;-83
2023/01/19 09:58:21;;;;;;;7.35;5.37;;;27.00;58.60;;;;;;1899187;75;21191;-85
2023/01/19 10:00:55;;;;;;;8.18;5.75;;;27.00;58.90;;;;;;1887082;75;21058;-86
2023/01/19 10:03:26;;;;;;;9.98;5.12;;;27.00;59.20;;;;;;1893148;75;21136;-85
2023/01/19 10:05:59;;;;;;;8.35;5.12;;;26.90;59.90;;;;;;1889125;75;21074;-83
2023/01/19 10:08:48;;;;;;;8.13;5.00;;;26.80;59.00;;;;;;1882760;74;21179;-85
2023/01/19 10:11:30;;;;;;;8.48;5.40;;;26.80;59.10;;;;;;1890602;74;21078;-83
2023/01/19 10:14:05;;;;;;;10.00;6.15;;;26.70;59.20;;;;;;1887275;73;21215;-83
2023/01/19 10:16:51;;;;;;;13.32;5.45;;;26.70;59.50;;;;;;1896723;73;21191;-84
2023/01/19 10:19:24;;;;;;;10.30;5.62;;;26.60;59.70;;;;;;1896604;75;21148;-86
2023/01/19 10:21:58;;;;;;;9.33;5.65;;;26.60;59.80;;;;;;1883932;75;21139;-85
2023/01/19 10:24:34;;;;;;;5.87;4.97;;;26.50;60.00;;;;;;1883261;75;21066;-86
2023/01/19 10:27:07;;;;;;;9.88;5.20;;;26.50;60.00;;;;;;1902299;75;21120;-85
2023/01/19 10:29:38;;;;;;;7.97;5.37;;;26.50;60.10;;;;;;1888075;75;21647;-85
2023/01/19 10:32:18;;;;;;;9.18;5.45;;;26.50;60.00;;;;;;1896957;75;21187;-83
2023/01/19 10:34:53;;;;;;;7.72;4.58;;;26.40;59.90;;;;;;1898752;73;21069;-84
2023/01/19 10:37:32;;;;;;;8.10;5.40;;;26.40;60.00;;;;;;1913345;75;21081;-84
2023/01/19 10:40:27;;;;;;;8.80;5.55;;;26.40;60.10;;;;;;1907604;73;21603;-86
2023/01/19 10:42:58;;;;;;;10.25;5.42;;;26.40;60.80;;;;;;1910628;73;21170;-86
2023/01/19 10:45:31;;;;;;;11.18;7.62;;;26.30;60.90;;;;;;1896495;73;21145;-85
2023/01/19 10:48:07;;;;;;;7.80;5.25;;;26.30;60.90;;;;;;1908556;73;21220;-86
2023/01/19 10:50:39;;;;;;;8.58;5.45;;;26.30;61.10;;;;;;1904521;73;21143;-86
2023/01/19 10:53:18;;;;;;;11.45;6.05;;;26.20;61.30;;;;;;1899963;73;21596;-85
2023/01/19 10:55:50;;;;;;;9.45;5.45;;;26.20;61.60;;;;;;1897993;73;21169;-84
2023/01/19 10:58:29;;;;;;;10.13;5.50;;;26.20;61.80;;;;;;1906824;73;21094;-71
2023/01/19 11:01:15;;;;;;;11.43;5.30;;;26.10;61.90;;;;;;1908249;73;21212;-70
2023/01/19 11:03:46;;;;;;;8.40;5.40;;;26.10;62.30;;;;;;1905153;73;21143;-71
2023/01/19 11:06:20;;;;;;;8.90;5.37;;;26.00;62.40;;;;;;1863978;75;21155;-73
2023/01/19 11:08:57;;;;;;;7.03;5.25;;;26.00;62.60;;;;;;1908630;73;21140;-85
2023/01/19 11:11:28;;;;;;;10.98;5.67;;;26.00;62.70;;;;;;1879995;75;21196;-83
2023/01/19 11:14:11;;;;;;;8.23;4.95;;;25.90;63.00;;;;;;1902533;74;21053;-83
2023/01/19 11:16:50;;;;;;;10.75;5.67;;;25.90;63.00;;;;;;1869860;76;21158;-83
2023/01/19 11:19:33;;;;;;;8.15;5.08;;;25.90;63.20;;;;;;1906369;73;21139;-83
2023/01/19 11:22:12;;;;;;;11.33;5.60;;;25.90;63.30;;;;;;1875906;74;21172;-82
2023/01/19 11:24:45;;;;;;;14.25;6.17;;;25.90;63.50;;;;;;1880613;75;21083;-82
2023/01/19 11:27:20;;;;;;;9.90;5.65;;;25.80;63.50;;;;;;1871881;76;21058;-83
2023/01/19 11:29:53;;;;;;;14.80;6.42;;;25.80;63.60;;;;;;1869156;76;21171;-83
2023/01/19 11:32:25;;;;;;;9.35;6.47;;;25.80;63.80;;;;;;1864895;75;21175;-84
2023/01/19 11:34:56;;;;;;;14.95;6.70;;;25.70;64.00;;;;;;1846950;75;21168;-84
2023/01/19 11:37:33;;;;;;;10.63;6.30;;;25.70;65.00;;;;;;1820119;76;21792;-84
2023/01/19 11:40:05;;;;;;;10.13;5.97;;;25.70;64.30;;;;;;1845137;76;21071;-83
2023/01/19 11:42:37;;;;;;;8.48;5.47;;;25.60;64.40;;;;;;1835384;75;21197;-84
2023/01/19 11:45:13;;;;;;;13.32;5.47;;;25.60;64.60;;;;;;1802515;77;21095;-83
2023/01/19 11:47:48;;;;;;;11.88;4.97;;;25.60;64.70;;;;;;1843430;76;21131;-84
2023/01/19 11:50:30;;;;;;;10.10;6.12;;;25.60;64.80;;;;;;1811852;77;21141;-84
2023/01/19 11:53:29;;;;;;;10.63;6.03;;;25.60;65.00;;;;;;1846792;77;21140;-84
2023/01/19 11:56:05;;;;;;;10.72;7.03;;;25.50;65.10;;;;;;1842805;76;21113;-84
2023/01/19 11:58:42;;;;;;;12.00;6.75;;;25.50;65.10;;;;;;1852775;75;21074;-84
2023/01/19 12:01:24;;;;;;;12.88;7.22;;;25.50;65.20;;;;;;1812419;79;21083;-84
2023/01/19 12:04:03;;;;;;;13.55;8.08;;;25.50;65.30;;;;;;1843615;76;21099;-83
2023/01/19 12:06:37;;;;;;;17.35;9.33;;;25.50;66.40;;;;;;1825863;76;21150;-84
2023/01/19 12:09:12;;;;;;;18.40;11.15;;;25.40;65.60;;;;;;1833537;76;21146;-84
2023/01/19 12:11:46;;;;;;;19.77;11.65;;;25.40;65.80;;;;;;1812805;77;21090;-83
2023/01/19 12:14:25;;;;;;;21.62;12.13;;;25.40;66.00;;;;;;1830608;76;21115;-82
2023/01/19 12:16:59;;;;;;;19.80;11.60;;;25.40;66.20;;;;;;1840902;76;21162;-84
2023/01/19 12:19:35;;;;;;;20.72;11.63;;;25.30;66.20;;;;;;1836557;76;21147;-83
2023/01/19 12:22:09;;;;;;;17.95;11.50;;;25.30;66.30;;;;;;1835991;76;21174;-84
2023/01/19 12:24:42;;;;;;;14.38;9.50;;;25.30;66.50;;;;;;1821970;78;21114;-83
2023/01/19 12:27:24;;;;;;;18.00;10.30;;;25.30;66.70;;;;;;1838827;76;21215;-84
2023/01/19 12:29:55;;;;;;;18.40;10.45;;;25.20;66.80;;;;;;1810234;77;21215;-84
2023/01/19 12:32:35;;;;;;;16.55;9.85;;;25.20;67.00;;;;;;1860331;75;21214;-84
2023/01/19 12:35:08;;;;;;;15.80;9.00;;;25.20;67.10;;;;;;1894032;74;21131;-84
2023/01/19 12:37:41;;;;;;;12.93;8.00;;;25.20;67.20;;;;;;1883510;75;21206;-83
2023/01/19 12:40:30;;;;;;;13.62;7.95;;;25.10;67.20;;;;;;1909177;74;21199;-85
2023/01/19 12:43:05;;;;;;;11.38;7.80;;;25.10;67.20;;;;;;1876758;76;21059;-84
2023/01/19 12:45:38;;;;;;;15.32;7.87;;;25.10;67.40;;;;;;1895639;75;21068;-84
2023/01/19 12:48:13;;;;;;;15.78;9.43;;;25.10;67.50;;;;;;1884465;73;21092;-83
2023/01/19 12:50:46;;;;;;;15.03;9.80;;;25.10;67.70;;;;;;1897513;74;21044;-86
2023/01/19 12:53:20;;;;;;;15.60;9.35;;;25.10;68.10;;;;;;1892377;75;21191;-86
2023/01/19 12:56:01;;;;;;;15.78;9.93;;;25.00;68.20;;;;;;1869007;75;21123;-87
2023/01/19 12:58:33;;;;;;;13.25;9.55;;;25.00;68.40;;;;;;1874845;74;21163;-85
2023/01/19 13:01:15;;;;;;;14.13;9.30;;;25.00;68.60;;;;;;1886791;75;21502;-85
2023/01/19 13:04:08;;;;;;;15.25;9.28;;;25.00;69.00;;;;;;1888908;75;21275;-85
2023/01/19 13:06:51;;;;;;;16.80;9.43;;;25.00;69.20;;;;;;1887840;75;21149;-84
2023/01/19 13:09:36;;;;;;;15.50;9.10;;;24.90;69.60;;;;;;1894052;75;21899;-83
2023/01/19 13:12:21;;;;;;;16.65;8.83;;;24.90;69.70;;;;;;1889418;75;21101;-83
2023/01/19 13:14:53;;;;;;;17.52;9.48;;;24.90;70.00;;;;;;1895590;75;21132;-86
2023/01/19 13:17:32;;;;;;;17.60;9.35;;;24.90;70.10;;;;;;1882690;75;21251;-84
2023/01/19 13:20:22;;;;;;;16.42;9.70;;;24.80;71.30;;;;;;1889178;75;21269;-83
2023/01/19 13:23:10;;;;;;;16.07;10.75;;;24.90;70.60;;;;;;1891751;75;21121;-85
2023/01/19 13:25:43;;;;;;;14.87;10.35;;;24.80;70.70;;;;;;1895479;75;21143;-85
2023/01/19 13:28:16;;;;;;;15.05;10.05;;;24.80;70.90;;;;;;1901473;74;21083;-86
2023/01/19 13:30:59;;;;;;;17.42;9.38;;;24.80;70.90;;;;;;1843863;77;21628;-86